sensor_id;sensor_type;location;lat;lon;timestamp;pressure;altitude;pressure_sealevel;temperature;humidity
33625;BME280;19962;47.820;1.930;2024-02-23T00:01:23;98794.53;;;9.33;79.81
33625;BME280;19962;47.820;1.930;2024-02-23T00:03:49;98794.50;;;9.28;79.73
33625;BME280;19962;47.820;1.930;2024-02-23T00:06:15;98791.75;;;9.23;79.82
33625;BME280;19962;47.820;1.930;2024-02-23T00:08:41;98790.72;;;9.29;79.85
33625;BME280;19962;47.820;1.930;2024-02-23T00:11:07;98789.88;;;9.28;80.03
33625;BME280;19962;47.820;1.930;2024-02-23T00:13:33;98788.50;;;9.31;79.90
33625;BME280;19962;47.820;1.930;2024-02-23T00:16:00;98789.34;;;9.31;79.71
33625;BME280;19962;47.820;1.930;2024-02-23T00:18:26;98787.41;;;9.27;79.92
33625;BME280;19962;47.820;1.930;2024-02-23T00:20:52;98782.22;;;9.30;80.20
33625;BME280;19962;47.820;1.930;2024-02-23T00:23:18;98777.06;;;9.34;79.40
33625;BME280;19962;47.820;1.930;2024-02-23T00:25:45;98780.84;;;9.33;79.49
33625;BME280;19962;47.820;1.930;2024-02-23T00:28:11;98781.97;;;9.37;79.24
33625;BME280;19962;47.820;1.930;2024-02-23T00:30:37;98772.97;;;9.41;79.36
33625;BME280;19962;47.820;1.930;2024-02-23T00:33:03;98771.34;;;9.40;79.36
33625;BME280;19962;47.820;1.930;2024-02-23T00:35:30;98769.13;;;9.37;79.44
33625;BME280;19962;47.820;1.930;2024-02-23T00:37:56;98774.84;;;9.31;79.87
33625;BME280;19962;47.820;1.930;2024-02-23T00:40:22;98754.31;;;9.28;79.70
33625;BME280;19962;47.820;1.930;2024-02-23T00:42:49;98753.72;;;9.26;79.88
33625;BME280;19962;47.820;1.930;2024-02-23T00:45:15;98764.09;;;9.19;80.02
33625;BME280;19962;47.820;1.930;2024-02-23T00:47:42;98760.56;;;9.24;80.03
33625;BME280;19962;47.820;1.930;2024-02-23T00:50:09;98767.94;;;9.18;78.99
33625;BME280;19962;47.820;1.930;2024-02-23T00:52:36;98759.94;;;9.07;79.63
33625;BME280;19962;47.820;1.930;2024-02-23T00:55:02;98763.13;;;8.99;80.00
33625;BME280;19962;47.820;1.930;2024-02-23T00:57:28;98759.09;;;9.06;80.44
33625;BME280;19962;47.820;1.930;2024-02-23T00:59:56;98763.03;;;9.25;80.27
33625;BME280;19962;47.820;1.930;2024-02-23T01:02:22;98746.13;;;9.38;79.50
33625;BME280;19962;47.820;1.930;2024-02-23T01:04:49;98744.44;;;9.22;79.23
33625;BME280;19962;47.820;1.930;2024-02-23T01:07:15;98738.91;;;9.17;79.23
33625;BME280;19962;47.820;1.930;2024-02-23T01:09:41;98748.75;;;9.13;79.58
33625;BME280;19962;47.820;1.930;2024-02-23T01:12:07;98736.13;;;9.12;79.34
33625;BME280;19962;47.820;1.930;2024-02-23T01:14:33;98742.44;;;9.13;80.14
33625;BME280;19962;47.820;1.930;2024-02-23T01:16:59;98739.19;;;9.16;80.09
33625;BME280;19962;47.820;1.930;2024-02-23T01:19:25;98733.44;;;9.17;79.69
33625;BME280;19962;47.820;1.930;2024-02-23T01:21:51;98725.78;;;9.19;79.66
33625;BME280;19962;47.820;1.930;2024-02-23T01:24:25;98724.19;;;9.23;79.88
33625;BME280;19962;47.820;1.930;2024-02-23T01:26:53;98716.72;;;9.14;79.82
33625;BME280;19962;47.820;1.930;2024-02-23T01:29:21;98711.84;;;9.16;79.97
33625;BME280;19962;47.820;1.930;2024-02-23T01:31:48;98712.34;;;9.13;80.03
33625;BME280;19962;47.820;1.930;2024-02-23T01:34:14;98711.00;;;9.15;80.19
33625;BME280;19962;47.820;1.930;2024-02-23T01:36:40;98701.66;;;9.11;80.35
33625;BME280;19962;47.820;1.930;2024-02-23T01:39:06;98701.94;;;9.15;80.11
33625;BME280;19962;47.820;1.930;2024-02-23T01:41:33;98698.41;;;9.14;79.99
33625;BME280;19962;47.820;1.930;2024-02-23T01:43:59;98704.97;;;9.13;80.43
33625;BME280;19962;47.820;1.930;2024-02-23T01:46:25;98716.97;;;9.07;80.54
33625;BME280;19962;47.820;1.930;2024-02-23T01:48:52;98707.38;;;9.05;80.73
33625;BME280;19962;47.820;1.930;2024-02-23T01:51:19;98704.91;;;9.03;80.85
33625;BME280;19962;47.820;1.930;2024-02-23T01:53:45;98708.72;;;9.02;80.85
33625;BME280;19962;47.820;1.930;2024-02-23T01:56:12;98692.84;;;8.99;81.10
33625;BME280;19962;47.820;1.930;2024-02-23T01:58:43;98700.25;;;8.99;81.49
33625;BME280;19962;47.820;1.930;2024-02-23T02:01:10;98706.56;;;9.04;81.67
33625;BME280;19962;47.820;1.930;2024-02-23T02:03:38;98710.38;;;9.03;81.49
33625;BME280;19962;47.820;1.930;2024-02-23T02:06:06;98709.00;;;9.06;81.62
33625;BME280;19962;47.820;1.930;2024-02-23T02:08:34;98690.72;;;9.06;81.33
33625;BME280;19962;47.820;1.930;2024-02-23T02:11:00;98687.13;;;9.06;81.39
33625;BME280;19962;47.820;1.930;2024-02-23T02:13:28;98683.84;;;9.04;81.35
33625;BME280;19962;47.820;1.930;2024-02-23T02:15:54;98686.84;;;9.02;81.80
33625;BME280;19962;47.820;1.930;2024-02-23T02:18:20;98689.59;;;9.02;81.68
33625;BME280;19962;47.820;1.930;2024-02-23T02:20:55;98681.97;;;9.09;81.53
33625;BME280;19962;47.820;1.930;2024-02-23T02:23:22;98680.31;;;9.08;81.62
33625;BME280;19962;47.820;1.930;2024-02-23T02:25:58;98683.28;;;9.02;81.54
33625;BME280;19962;47.820;1.930;2024-02-23T02:28:25;98685.75;;;9.03;81.28
33625;BME280;19962;47.820;1.930;2024-02-23T02:30:52;98681.31;;;8.92;81.23
33625;BME280;19962;47.820;1.930;2024-02-23T02:33:18;98682.91;;;8.83;81.95
33625;BME280;19962;47.820;1.930;2024-02-23T02:35:45;98685.41;;;8.90;81.86
33625;BME280;19962;47.820;1.930;2024-02-23T02:38:11;98673.38;;;8.91;82.23
33625;BME280;19962;47.820;1.930;2024-02-23T02:40:38;98674.22;;;8.91;81.75
33625;BME280;19962;47.820;1.930;2024-02-23T02:43:04;98677.22;;;8.90;82.27
33625;BME280;19962;47.820;1.930;2024-02-23T02:45:31;98673.38;;;8.91;82.06
33625;BME280;19962;47.820;1.930;2024-02-23T02:47:57;98666.81;;;8.92;81.84
33625;BME280;19962;47.820;1.930;2024-02-23T02:50:23;98663.00;;;8.93;81.97
33625;BME280;19962;47.820;1.930;2024-02-23T02:52:50;98666.28;;;8.90;81.77
33625;BME280;19962;47.820;1.930;2024-02-23T02:55:16;98667.91;;;8.91;81.88
33625;BME280;19962;47.820;1.930;2024-02-23T02:57:43;98661.06;;;8.88;81.94
33625;BME280;19962;47.820;1.930;2024-02-23T03:00:11;98659.69;;;8.86;82.26
33625;BME280;19962;47.820;1.930;2024-02-23T03:02:37;98653.09;;;8.82;82.38
33625;BME280;19962;47.820;1.930;2024-02-23T03:05:03;98660.78;;;8.85;82.60
33625;BME280;19962;47.820;1.930;2024-02-23T03:07:30;98657.22;;;8.84;82.76
33625;BME280;19962;47.820;1.930;2024-02-23T03:09:56;98661.59;;;8.85;83.04
33625;BME280;19962;47.820;1.930;2024-02-23T03:12:23;98656.13;;;8.85;82.75
33625;BME280;19962;47.820;1.930;2024-02-23T03:14:49;98653.97;;;8.92;82.68
33625;BME280;19962;47.820;1.930;2024-02-23T03:17:15;98653.97;;;8.92;82.77
33625;BME280;19962;47.820;1.930;2024-02-23T03:19:42;98646.91;;;9.01;82.68
33625;BME280;19962;47.820;1.930;2024-02-23T03:22:08;98645.81;;;9.02;82.35
33625;BME280;19962;47.820;1.930;2024-02-23T03:24:34;98643.31;;;8.91;82.84
33625;BME280;19962;47.820;1.930;2024-02-23T03:27:00;98635.09;;;8.86;82.92
33625;BME280;19962;47.820;1.930;2024-02-23T03:29:26;98639.16;;;8.83;83.00
33625;BME280;19962;47.820;1.930;2024-02-23T03:31:55;98636.44;;;8.83;83.14
33625;BME280;19962;47.820;1.930;2024-02-23T03:34:21;98626.63;;;8.87;83.58
33625;BME280;19962;47.820;1.930;2024-02-23T03:36:47;98625.75;;;8.82;83.41
33625;BME280;19962;47.820;1.930;2024-02-23T03:39:14;98620.28;;;8.82;83.31
33625;BME280;19962;47.820;1.930;2024-02-23T03:41:40;98626.59;;;8.82;83.41
33625;BME280;19962;47.820;1.930;2024-02-23T03:44:06;98607.41;;;8.77;83.74
33625;BME280;19962;47.820;1.930;2024-02-23T03:46:32;98604.13;;;8.75;83.73
33625;BME280;19962;47.820;1.930;2024-02-23T03:48:58;98601.69;;;8.79;83.88
33625;BME280;19962;47.820;1.930;2024-02-23T03:51:24;98602.19;;;8.71;84.32
33625;BME280;19962;47.820;1.930;2024-02-23T03:53:50;98609.06;;;8.78;84.16
33625;BME280;19962;47.820;1.930;2024-02-23T03:56:17;98600.28;;;8.76;83.83
33625;BME280;19962;47.820;1.930;2024-02-23T03:58:43;98597.03;;;8.74;84.07
33625;BME280;19962;47.820;1.930;2024-02-23T04:01:09;98605.75;;;8.76;84.34
33625;BME280;19962;47.820;1.930;2024-02-23T04:03:35;98587.72;;;8.75;83.97
33625;BME280;19962;47.820;1.930;2024-02-23T04:06:01;98594.56;;;8.78;84.01
33625;BME280;19962;47.820;1.930;2024-02-23T04:08:27;98589.91;;;8.73;84.43
33625;BME280;19962;47.820;1.930;2024-02-23T04:10:53;98587.72;;;8.75;84.43
33625;BME280;19962;47.820;1.930;2024-02-23T04:13:20;98585.53;;;8.77;83.95
33625;BME280;19962;47.820;1.930;2024-02-23T04:15:47;98581.13;;;8.71;84.17
33625;BME280;19962;47.820;1.930;2024-02-23T04:18:13;98577.84;;;8.69;84.25
33625;BME280;19962;47.820;1.930;2024-02-23T04:20:39;98571.53;;;8.64;84.19
33625;BME280;19962;47.820;1.930;2024-02-23T04:23:05;98568.25;;;8.62;84.82
33625;BME280;19962;47.820;1.930;2024-02-23T04:25:31;98571.00;;;8.67;84.65
33625;BME280;19962;47.820;1.930;2024-02-23T04:27:57;98570.72;;;8.68;84.36
33625;BME280;19962;47.820;1.930;2024-02-23T04:30:23;98572.91;;;8.66;84.74
33625;BME280;19962;47.820;1.930;2024-02-23T04:32:49;98572.91;;;8.66;84.59
33625;BME280;19962;47.820;1.930;2024-02-23T04:35:16;98564.19;;;8.64;85.04
33625;BME280;19962;47.820;1.930;2024-02-23T04:37:45;98553.53;;;8.68;84.57
33625;BME280;19962;47.820;1.930;2024-02-23T04:40:11;98554.31;;;8.68;84.74
33625;BME280;19962;47.820;1.930;2024-02-23T04:42:37;98546.69;;;8.70;84.64
33625;BME280;19962;47.820;1.930;2024-02-23T04:45:05;98546.19;;;8.78;84.52
33625;BME280;19962;47.820;1.930;2024-02-23T04:47:31;98533.88;;;8.76;84.59
33625;BME280;19962;47.820;1.930;2024-02-23T04:49:58;98534.66;;;8.66;84.66
33625;BME280;19962;47.820;1.930;2024-02-23T04:52:25;98543.09;;;8.65;84.70
33625;BME280;19962;47.820;1.930;2024-02-23T04:54:51;98545.06;;;8.69;84.71
33625;BME280;19962;47.820;1.930;2024-02-23T04:57:17;98544.47;;;8.62;84.67
33625;BME280;19962;47.820;1.930;2024-02-23T04:59:43;98547.19;;;8.57;84.89
33625;BME280;19962;47.820;1.930;2024-02-23T05:02:09;98538.22;;;8.67;85.15
33625;BME280;19962;47.820;1.930;2024-02-23T05:04:35;98543.38;;;8.68;84.65
33625;BME280;19962;47.820;1.930;2024-02-23T05:07:01;98543.94;;;8.65;84.75
33625;BME280;19962;47.820;1.930;2024-02-23T05:09:27;98544.47;;;8.62;85.24
33625;BME280;19962;47.820;1.930;2024-02-23T05:11:53;98542.81;;;8.61;85.50
33625;BME280;19962;47.820;1.930;2024-02-23T05:14:19;98552.41;;;8.64;84.80
33625;BME280;19962;47.820;1.930;2024-02-23T05:16:45;98549.38;;;8.60;85.14
33625;BME280;19962;47.820;1.930;2024-02-23T05:19:11;98555.63;;;8.56;85.13
33625;BME280;19962;47.820;1.930;2024-02-23T05:21:37;98557.25;;;8.52;85.45
33625;BME280;19962;47.820;1.930;2024-02-23T05:24:04;98552.09;;;8.55;85.65
33625;BME280;19962;47.820;1.930;2024-02-23T05:26:32;98557.00;;;8.58;85.91
33625;BME280;19962;47.820;1.930;2024-02-23T05:28:58;98565.25;;;8.68;85.41
33625;BME280;19962;47.820;1.930;2024-02-23T05:31:45;98561.47;;;8.69;85.77
33625;BME280;19962;47.820;1.930;2024-02-23T05:34:15;98562.34;;;8.80;85.15
33625;BME280;19962;47.820;1.930;2024-02-23T05:36:41;98565.34;;;8.78;85.12
33625;BME280;19962;47.820;1.930;2024-02-23T05:39:08;98556.03;;;8.79;84.95
33625;BME280;19962;47.820;1.930;2024-02-23T05:41:38;98564.19;;;8.69;85.12
33625;BME280;19962;47.820;1.930;2024-02-23T05:44:05;98558.19;;;8.72;85.27
33625;BME280;19962;47.820;1.930;2024-02-23T05:46:33;98556.53;;;8.71;85.16
33625;BME280;19962;47.820;1.930;2024-02-23T05:48:59;98553.25;;;8.69;85.21
33625;BME280;19962;47.820;1.930;2024-02-23T05:51:25;98548.34;;;8.71;85.51
33625;BME280;19962;47.820;1.930;2024-02-23T05:53:51;98541.75;;;8.67;85.43
33625;BME280;19962;47.820;1.930;2024-02-23T05:56:17;98546.69;;;8.70;85.39
33625;BME280;19962;47.820;1.930;2024-02-23T05:58:44;98543.69;;;8.67;85.01
33625;BME280;19962;47.820;1.930;2024-02-23T06:01:10;98541.72;;;8.62;85.62
33625;BME280;19962;47.820;1.930;2024-02-23T06:03:36;98525.34;;;8.62;85.43
33625;BME280;19962;47.820;1.930;2024-02-23T06:06:02;98531.63;;;8.63;85.48
33625;BME280;19962;47.820;1.930;2024-02-23T06:08:28;98529.13;;;8.51;85.88
33625;BME280;19962;47.820;1.930;2024-02-23T06:10:54;98535.97;;;8.54;85.96
33625;BME280;19962;47.820;1.930;2024-02-23T06:13:20;98529.13;;;8.51;86.26
33625;BME280;19962;47.820;1.930;2024-02-23T06:15:46;98524.19;;;8.53;86.23
33625;BME280;19962;47.820;1.930;2024-02-23T06:18:12;98531.56;;;8.53;85.70
33625;BME280;19962;47.820;1.930;2024-02-23T06:20:38;98531.56;;;8.53;85.93
33625;BME280;19962;47.820;1.930;2024-02-23T06:23:04;98529.41;;;8.60;85.87
33625;BME280;19962;47.820;1.930;2024-02-23T06:25:30;98539.84;;;8.68;85.44
33625;BME280;19962;47.820;1.930;2024-02-23T06:27:57;98539.59;;;8.69;85.31
33625;BME280;19962;47.820;1.930;2024-02-23T06:30:23;98540.13;;;8.66;85.50
33625;BME280;19962;47.820;1.930;2024-02-23T06:32:49;98540.09;;;8.61;85.52
33625;BME280;19962;47.820;1.930;2024-02-23T06:35:15;98533.50;;;8.52;85.85
33625;BME280;19962;47.820;1.930;2024-02-23T06:37:41;98535.13;;;8.53;85.94
33625;BME280;19962;47.820;1.930;2024-02-23T06:40:08;98534.06;;;8.59;85.71
33625;BME280;19962;47.820;1.930;2024-02-23T06:42:34;98535.72;;;8.60;85.85
33625;BME280;19962;47.820;1.930;2024-02-23T06:45:00;98536.28;;;8.62;85.46
33625;BME280;19962;47.820;1.930;2024-02-23T06:47:27;98534.88;;;8.60;85.44
33625;BME280;19962;47.820;1.930;2024-02-23T06:49:53;98535.50;;;8.72;85.38
33625;BME280;19962;47.820;1.930;2024-02-23T06:52:19;98528.41;;;8.76;84.70
33625;BME280;19962;47.820;1.930;2024-02-23T06:54:45;98530.59;;;8.84;84.83
33625;BME280;19962;47.820;1.930;2024-02-23T06:57:11;98537.75;;;8.85;84.68
33625;BME280;19962;47.820;1.930;2024-02-23T06:59:37;98544.56;;;8.82;84.58
33625;BME280;19962;47.820;1.930;2024-02-23T07:02:03;98548.38;;;8.81;85.03
33625;BME280;19962;47.820;1.930;2024-02-23T07:04:30;98531.44;;;8.84;84.62
33625;BME280;19962;47.820;1.930;2024-02-23T07:06:56;98554.13;;;8.80;84.92
33625;BME280;19962;47.820;1.930;2024-02-23T07:09:22;98547.00;;;8.84;84.85
33625;BME280;19962;47.820;1.930;2024-02-23T07:11:48;98546.81;;;8.95;84.62
33625;BME280;19962;47.820;1.930;2024-02-23T07:14:14;98546.00;;;9.00;84.28
33625;BME280;19962;47.820;1.930;2024-02-23T07:16:42;98539.66;;;8.89;84.78
33625;BME280;19962;47.820;1.930;2024-02-23T07:19:09;98546.78;;;8.90;84.59
33625;BME280;19962;47.820;1.930;2024-02-23T07:21:35;98547.06;;;8.94;84.61
33625;BME280;19962;47.820;1.930;2024-02-23T07:24:01;98538.56;;;8.85;84.68
33625;BME280;19962;47.820;1.930;2024-02-23T07:26:27;98535.25;;;8.78;84.78
33625;BME280;19962;47.820;1.930;2024-02-23T07:28:56;98534.69;;;8.76;85.32
33625;BME280;19962;47.820;1.930;2024-02-23T07:31:22;98544.56;;;8.82;85.09
33625;BME280;19962;47.820;1.930;2024-02-23T07:33:49;98545.69;;;8.91;85.37
33625;BME280;19962;47.820;1.930;2024-02-23T07:36:18;98541.63;;;9.04;85.34
33625;BME280;19962;47.820;1.930;2024-02-23T07:38:44;98544.66;;;9.12;84.76
33625;BME280;19962;47.820;1.930;2024-02-23T07:41:11;98544.72;;;9.22;84.72
33625;BME280;19962;47.820;1.930;2024-02-23T07:43:39;98543.34;;;9.20;84.49
33625;BME280;19962;47.820;1.930;2024-02-23T07:46:05;98541.94;;;9.17;84.76
33625;BME280;19962;47.820;1.930;2024-02-23T07:48:34;98542.50;;;9.19;84.65
33625;BME280;19962;47.820;1.930;2024-02-23T07:51:02;98553.97;;;9.11;84.45
33625;BME280;19962;47.820;1.930;2024-02-23T07:53:29;98537.56;;;9.11;85.19
33625;BME280;19962;47.820;1.930;2024-02-23T07:55:55;98539.75;;;9.09;85.03
33625;BME280;19962;47.820;1.930;2024-02-23T07:58:21;98543.88;;;9.17;85.38
33625;BME280;19962;47.820;1.930;2024-02-23T08:00:47;98549.63;;;9.25;84.86
33625;BME280;19962;47.820;1.930;2024-02-23T08:03:13;98546.38;;;9.33;84.14
33625;BME280;19962;47.820;1.930;2024-02-23T08:05:40;98557.31;;;9.38;84.58
33625;BME280;19962;47.820;1.930;2024-02-23T08:08:06;98540.38;;;9.41;84.38
33625;BME280;19962;47.820;1.930;2024-02-23T08:10:32;98543.09;;;9.41;84.35
33625;BME280;19962;47.820;1.930;2024-02-23T08:12:59;98549.69;;;9.45;84.51
33625;BME280;19962;47.820;1.930;2024-02-23T08:15:26;98552.41;;;9.40;84.38
33625;BME280;19962;47.820;1.930;2024-02-23T08:17:52;98555.41;;;9.39;84.36
33625;BME280;19962;47.820;1.930;2024-02-23T08:20:18;98551.84;;;9.48;84.27
33625;BME280;19962;47.820;1.930;2024-02-23T08:22:44;98547.47;;;9.52;84.48
33625;BME280;19962;47.820;1.930;2024-02-23T08:25:10;98548.06;;;9.54;84.83
33625;BME280;19962;47.820;1.930;2024-02-23T08:27:36;98559.28;;;9.58;84.31
33625;BME280;19962;47.820;1.930;2024-02-23T08:30:02;98563.38;;;9.55;84.71
33625;BME280;19962;47.820;1.930;2024-02-23T08:32:29;98554.63;;;9.58;84.31
33625;BME280;19962;47.820;1.930;2024-02-23T08:34:55;98560.38;;;9.57;84.68
33625;BME280;19962;47.820;1.930;2024-02-23T08:37:25;98565.59;;;9.68;84.26
33625;BME280;19962;47.820;1.930;2024-02-23T08:39:52;98573.53;;;9.75;84.28
33625;BME280;19962;47.820;1.930;2024-02-23T08:42:18;98573.25;;;9.87;84.32
33625;BME280;19962;47.820;1.930;2024-02-23T08:44:44;98577.63;;;9.93;83.98
33625;BME280;19962;47.820;1.930;2024-02-23T08:47:10;98568.34;;;9.94;83.47
33625;BME280;19962;47.820;1.930;2024-02-23T08:49:37;98572.16;;;9.98;83.35
33625;BME280;19962;47.820;1.930;2024-02-23T08:52:03;98567.25;;;9.95;83.37
33625;BME280;19962;47.820;1.930;2024-02-23T08:54:30;98567.78;;;10.02;83.36
33625;BME280;19962;47.820;1.930;2024-02-23T08:56:56;98582.06;;;10.19;82.79
33625;BME280;19962;47.820;1.930;2024-02-23T08:59:22;98587.81;;;10.22;83.09
33625;BME280;19962;47.820;1.930;2024-02-23T09:01:48;98583.44;;;10.16;82.38
33625;BME280;19962;47.820;1.930;2024-02-23T09:04:14;98580.16;;;10.19;82.73
33625;BME280;19962;47.820;1.930;2024-02-23T09:06:40;98580.97;;;10.25;82.10
33625;BME280;19962;47.820;1.930;2024-02-23T09:09:06;98564.25;;;10.21;82.34
33625;BME280;19962;47.820;1.930;2024-02-23T09:11:32;98568.34;;;10.19;82.49
33625;BME280;19962;47.820;1.930;2024-02-23T09:13:58;98570.56;;;10.22;82.39
33625;BME280;19962;47.820;1.930;2024-02-23T09:16:25;98568.63;;;10.32;82.51
33625;BME280;19962;47.820;1.930;2024-02-23T09:18:51;98574.09;;;10.37;82.03
33625;BME280;19962;47.820;1.930;2024-02-23T09:21:17;98566.13;;;10.46;82.04
33625;BME280;19962;47.820;1.930;2024-02-23T09:23:44;98569.44;;;10.48;81.99
33625;BME280;19962;47.820;1.930;2024-02-23T09:26:11;98557.06;;;10.60;81.90
33625;BME280;19962;47.820;1.930;2024-02-23T09:28:37;98555.63;;;10.73;81.17
33625;BME280;19962;47.820;1.930;2024-02-23T09:31:03;98561.47;;;10.51;80.82
33625;BME280;19962;47.820;1.930;2024-02-23T09:33:30;98548.59;;;10.52;81.02
33625;BME280;19962;47.820;1.930;2024-02-23T09:35:57;98557.88;;;10.61;80.82
33625;BME280;19962;47.820;1.930;2024-02-23T09:38:23;98564.16;;;10.61;80.89
33625;BME280;19962;47.820;1.930;2024-02-23T09:40:52;98546.59;;;10.72;81.16
33625;BME280;19962;47.820;1.930;2024-02-23T09:43:21;98544.66;;;10.78;80.93
33625;BME280;19962;47.820;1.930;2024-02-23T09:45:51;98543.50;;;10.94;80.68
33625;BME280;19962;47.820;1.930;2024-02-23T09:48:19;98542.91;;;11.02;80.08
33625;BME280;19962;47.820;1.930;2024-02-23T09:50:47;98544.00;;;11.06;79.91
33625;BME280;19962;47.820;1.930;2024-02-23T09:53:15;98540.16;;;11.07;79.86
33625;BME280;19962;47.820;1.930;2024-02-23T09:55:44;98543.91;;;11.21;79.95
33625;BME280;19962;47.820;1.930;2024-02-23T09:58:12;98535.94;;;11.24;79.73
33625;BME280;19962;47.820;1.930;2024-02-23T10:00:38;98535.47;;;11.12;79.70
33625;BME280;19962;47.820;1.930;2024-02-23T10:03:05;98532.38;;;11.24;79.92
33625;BME280;19962;47.820;1.930;2024-02-23T10:05:31;98535.16;;;11.19;80.03
33625;BME280;19962;47.820;1.930;2024-02-23T10:07:58;98529.22;;;10.97;80.67
33625;BME280;19962;47.820;1.930;2024-02-23T10:10:32;98528.16;;;10.93;81.21
33625;BME280;19962;47.820;1.930;2024-02-23T10:12:59;98534.22;;;10.80;81.62
33625;BME280;19962;47.820;1.930;2024-02-23T10:15:26;98530.91;;;10.88;81.61
33625;BME280;19962;47.820;1.930;2024-02-23T10:17:54;98529.19;;;11.07;81.94
33625;BME280;19962;47.820;1.930;2024-02-23T10:20:20;98530.75;;;11.18;81.75
33625;BME280;19962;47.820;1.930;2024-02-23T10:22:47;98525.78;;;11.25;81.29
33625;BME280;19962;47.820;1.930;2024-02-23T10:25:13;98530.75;;;11.23;80.44
33625;BME280;19962;47.820;1.930;2024-02-23T10:27:41;98530.44;;;11.24;80.24
33625;BME280;19962;47.820;1.930;2024-02-23T10:30:09;98534.81;;;11.30;79.39
33625;BME280;19962;47.820;1.930;2024-02-23T10:32:38;98536.75;;;11.25;79.98
33625;BME280;19962;47.820;1.930;2024-02-23T10:35:11;98533.41;;;11.38;79.54
33625;BME280;19962;47.820;1.930;2024-02-23T10:37:41;98531.97;;;11.45;79.42
33625;BME280;19962;47.820;1.930;2024-02-23T10:40:08;98533.88;;;11.50;79.28
33625;BME280;19962;47.820;1.930;2024-02-23T10:42:38;98536.88;;;11.53;79.33
33625;BME280;19962;47.820;1.930;2024-02-23T10:45:06;98531.56;;;11.67;79.04
33625;BME280;19962;47.820;1.930;2024-02-23T10:47:34;98539.25;;;11.70;78.99
33625;BME280;19962;47.820;1.930;2024-02-23T10:50:01;98533.25;;;11.58;78.62
33625;BME280;19962;47.820;1.930;2024-02-23T10:52:28;98532.44;;;11.62;78.81
33625;BME280;19962;47.820;1.930;2024-02-23T10:54:56;98527.09;;;11.76;78.31
33625;BME280;19962;47.820;1.930;2024-02-23T10:57:23;98531.81;;;11.75;77.83
33625;BME280;19962;47.820;1.930;2024-02-23T10:59:50;98528.81;;;11.67;78.00
33625;BME280;19962;47.820;1.930;2024-02-23T11:02:19;98533.94;;;11.35;78.30
33625;BME280;19962;47.820;1.930;2024-02-23T11:04:49;98548.84;;;11.24;79.05
33625;BME280;19962;47.820;1.930;2024-02-23T11:07:19;98538.38;;;11.31;79.53
33625;BME280;19962;47.820;1.930;2024-02-23T11:09:53;98545.63;;;11.60;79.85
33625;BME280;19962;47.820;1.930;2024-02-23T11:12:26;98545.72;;;11.84;79.65
33625;BME280;19962;47.820;1.930;2024-02-23T11:14:58;98539.16;;;11.80;78.75
33625;BME280;19962;47.820;1.930;2024-02-23T11:17:34;98544.63;;;11.85;79.13
33625;BME280;19962;47.820;1.930;2024-02-23T11:20:03;98536.38;;;11.85;78.99
33625;BME280;19962;47.820;1.930;2024-02-23T11:22:37;98528.03;;;11.66;79.54
33625;BME280;19962;47.820;1.930;2024-02-23T11:25:07;98530.31;;;11.49;78.87
33625;BME280;19962;47.820;1.930;2024-02-23T11:27:38;98528.94;;;11.47;79.25
33625;BME280;19962;47.820;1.930;2024-02-23T11:30:08;98520.50;;;11.33;79.08
33625;BME280;19962;47.820;1.930;2024-02-23T11:32:46;98512.84;;;11.30;78.53
33625;BME280;19962;47.820;1.930;2024-02-23T11:35:20;98512.59;;;11.27;78.91
33625;BME280;19962;47.820;1.930;2024-02-23T11:37:57;98503.22;;;11.33;79.07
33625;BME280;19962;47.820;1.930;2024-02-23T11:40:26;98501.81;;;11.40;78.52
33625;BME280;19962;47.820;1.930;2024-02-23T11:42:55;98499.06;;;11.40;78.67
33625;BME280;19962;47.820;1.930;2024-02-23T11:45:21;98492.41;;;11.46;78.85
33625;BME280;19962;47.820;1.930;2024-02-23T11:47:48;98502.25;;;11.57;78.34
33625;BME280;19962;47.820;1.930;2024-02-23T11:50:14;98487.25;;;11.78;78.34
33625;BME280;19962;47.820;1.930;2024-02-23T11:52:46;98496.22;;;11.89;77.92
33625;BME280;19962;47.820;1.930;2024-02-23T11:55:12;98485.38;;;11.74;77.02
33625;BME280;19962;47.820;1.930;2024-02-23T11:57:44;98476.63;;;11.72;77.11
33625;BME280;19962;47.820;1.930;2024-02-23T12:00:11;98478.81;;;11.70;77.23
33625;BME280;19962;47.820;1.930;2024-02-23T12:02:37;98484.81;;;11.77;77.10
33625;BME280;19962;47.820;1.930;2024-02-23T12:05:04;98466.44;;;11.72;76.60
33625;BME280;19962;47.820;1.930;2024-02-23T12:07:30;98473.34;;;11.70;76.50
33625;BME280;19962;47.820;1.930;2024-02-23T12:09:57;98472.16;;;11.81;76.99
33625;BME280;19962;47.820;1.930;2024-02-23T12:12:26;98465.03;;;11.75;76.29
33625;BME280;19962;47.820;1.930;2024-02-23T12:14:52;98461.69;;;11.83;76.07
33625;BME280;19962;47.820;1.930;2024-02-23T12:17:18;98462.25;;;11.80;75.66
33625;BME280;19962;47.820;1.930;2024-02-23T12:19:44;98459.53;;;11.75;75.31
33625;BME280;19962;47.820;1.930;2024-02-23T12:22:11;98456.13;;;11.88;75.51
33625;BME280;19962;47.820;1.930;2024-02-23T12:24:39;98450.69;;;11.83;74.96
33625;BME280;19962;47.820;1.930;2024-02-23T12:27:06;98463.41;;;11.74;74.30
33625;BME280;19962;47.820;1.930;2024-02-23T12:29:32;98461.50;;;11.74;74.33
33625;BME280;19962;47.820;1.930;2024-02-23T12:32:05;98461.00;;;11.67;73.80
33625;BME280;19962;47.820;1.930;2024-02-23T12:34:32;98457.41;;;11.67;74.26
33625;BME280;19962;47.820;1.930;2024-02-23T12:36:58;98449.81;;;11.87;74.56
33625;BME280;19962;47.820;1.930;2024-02-23T12:39:24;98438.31;;;11.85;74.03
33625;BME280;19962;47.820;1.930;2024-02-23T12:41:50;98456.00;;;11.74;74.13
33625;BME280;19962;47.820;1.930;2024-02-23T12:44:16;98442.91;;;11.95;74.48
33625;BME280;19962;47.820;1.930;2024-02-23T12:46:43;98431.78;;;12.05;73.86
33625;BME280;19962;47.820;1.930;2024-02-23T12:49:09;98427.16;;;12.00;73.66
33625;BME280;19962;47.820;1.930;2024-02-23T12:51:35;98423.25;;;12.06;73.23
33625;BME280;19962;47.820;1.930;2024-02-23T12:54:01;98427.47;;;11.99;72.45
33625;BME280;19962;47.820;1.930;2024-02-23T12:56:27;98424.19;;;11.97;72.20
33625;BME280;19962;47.820;1.930;2024-02-23T12:58:53;98414.88;;;11.93;71.89
33625;BME280;19962;47.820;1.930;2024-02-23T13:01:20;98407.56;;;12.07;72.15
33625;BME280;19962;47.820;1.930;2024-02-23T13:03:46;98409.34;;;12.21;71.51
33625;BME280;19962;47.820;1.930;2024-02-23T13:06:12;98399.41;;;12.25;71.43